createdAt,value
2022-08-29T00:01:10.198Z,5.85
2022-08-29T00:03:39.112Z,5.40
2022-08-29T00:06:08.776Z,5.90
2022-08-29T00:08:36.988Z,6.05
2022-08-29T00:11:06.153Z,5.68
2022-08-29T00:13:34.726Z,5.80
2022-08-29T00:16:01.482Z,5.85
2022-08-29T00:18:29.433Z,5.75
2022-08-29T00:20:58.389Z,4.95
2022-08-29T00:23:28.681Z,4.90
2022-08-29T00:25:59.053Z,4.75
2022-08-29T00:28:28.295Z,5.78
2022-08-29T00:30:57.473Z,5.60
2022-08-29T00:33:33.824Z,5.75
2022-08-29T00:36:05.525Z,6.65
2022-08-29T00:38:33.705Z,6.20
2022-08-29T00:41:04.166Z,6.55
2022-08-29T00:43:34.568Z,6.40
2022-08-29T00:46:23.110Z,6.82
2022-08-29T00:48:55.542Z,6.25
2022-08-29T00:51:24.776Z,6.55
2022-08-29T00:53:59.371Z,5.95
2022-08-29T00:56:26.853Z,6.25
2022-08-29T00:59:23.311Z,5.97
2022-08-29T01:01:54.469Z,5.72
2022-08-29T01:04:24.048Z,5.53
2022-08-29T01:06:51.887Z,5.72
2022-08-29T01:09:18.706Z,6.38
2022-08-29T01:11:46.559Z,6.35
2022-08-29T01:14:19.665Z,6.20
2022-08-29T01:16:48.952Z,6.30
2022-08-29T01:19:28.558Z,6.32
2022-08-29T01:22:25.118Z,6.15
2022-08-29T01:24:53.997Z,5.43
2022-08-29T01:27:26.920Z,6.38
2022-08-29T01:29:55.455Z,5.55
2022-08-29T01:32:23.967Z,5.88
2022-08-29T01:34:50.694Z,6.00
2022-08-29T01:37:17.576Z,7.10
2022-08-29T01:39:46.286Z,7.53
2022-08-29T01:42:18.279Z,6.05
2022-08-29T01:45:05.464Z,6.28
2022-08-29T01:47:37.268Z,6.25
2022-08-29T01:50:11.053Z,6.50
2022-08-29T01:52:39.161Z,6.65
2022-08-29T01:55:07.541Z,6.53
2022-08-29T01:57:38.287Z,6.10
2022-08-29T02:00:07.545Z,6.35
2022-08-29T02:02:34.449Z,6.18
2022-08-29T02:05:02.280Z,6.03
2022-08-29T02:07:29.049Z,6.35
2022-08-29T02:09:56.871Z,6.22
2022-08-29T02:12:24.662Z,5.80
2022-08-29T02:14:51.499Z,6.15
2022-08-29T02:17:19.623Z,6.13
2022-08-29T02:19:47.906Z,6.47
2022-08-29T02:22:16.099Z,6.40
2022-08-29T02:24:44.012Z,6.38
2022-08-29T02:27:11.930Z,6.00
2022-08-29T02:29:40.086Z,6.03
2022-08-29T02:32:09.887Z,6.28
2022-08-29T02:34:37.496Z,5.90
2022-08-29T02:37:06.189Z,5.90
2022-08-29T02:39:34.571Z,6.35
2022-08-29T02:42:02.854Z,5.78
2022-08-29T02:44:31.112Z,6.57
2022-08-29T02:46:57.856Z,6.32
2022-08-29T02:49:25.623Z,6.10
2022-08-29T02:51:53.865Z,6.35
2022-08-29T02:54:21.634Z,6.47
2022-08-29T02:56:49.484Z,6.35
2022-08-29T02:59:17.294Z,6.57
2022-08-29T03:01:44.048Z,6.43
2022-08-29T03:04:12.120Z,6.45
2022-08-29T03:06:41.795Z,7.07
2022-08-29T03:09:09.720Z,7.03
2022-08-29T03:14:17.845Z,6.85
2022-08-29T03:16:48.959Z,6.50
2022-08-29T03:19:17.548Z,6.55
2022-08-29T03:21:44.949Z,6.15
2022-08-29T03:24:12.626Z,6.60
2022-08-29T03:26:40.709Z,6.35
2022-08-29T03:29:08.682Z,6.75
2022-08-29T03:31:35.614Z,6.65
2022-08-29T03:34:02.462Z,6.57
2022-08-29T03:36:30.651Z,6.75
2022-08-29T03:38:58.435Z,6.65
2022-08-29T03:41:30.014Z,6.80
2022-08-29T03:43:58.557Z,7.32
2022-08-29T03:46:26.078Z,6.82
2022-08-29T03:48:52.806Z,6.60
2022-08-29T03:51:20.774Z,5.82
2022-08-29T03:53:48.611Z,5.63
2022-08-29T03:56:18.816Z,6.78
2022-08-29T03:58:52.936Z,6.72
2022-08-29T04:01:21.213Z,7.40
2022-08-29T04:03:49.322Z,6.57
2022-08-29T04:06:17.437Z,7.68
2022-08-29T04:08:52.058Z,6.88
2022-08-29T04:11:23.016Z,7.18
2022-08-29T04:13:50.751Z,7.68
2022-08-29T04:16:24.207Z,7.40
2022-08-29T04:18:52.282Z,7.35
2022-08-29T04:21:22.508Z,7.07
2022-08-29T04:23:50.585Z,7.13
2022-08-29T04:26:36.442Z,7.43
2022-08-29T04:29:07.745Z,7.43
2022-08-29T04:31:37.130Z,7.22
2022-08-29T04:34:07.055Z,7.20
2022-08-29T04:36:39.654Z,7.10
2022-08-29T04:39:08.982Z,8.18
2022-08-29T04:41:36.850Z,7.45
2022-08-29T04:44:07.051Z,7.53
2022-08-29T04:46:34.200Z,7.65
2022-08-29T04:49:04.524Z,7.15
2022-08-29T04:51:35.128Z,7.70
2022-08-29T04:54:04.782Z,7.72
2022-08-29T04:56:31.724Z,7.40
2022-08-29T04:58:58.718Z,7.30
2022-08-29T05:01:27.118Z,8.23
2022-08-29T05:03:55.664Z,9.07
2022-08-29T05:06:25.168Z,8.07
2022-08-29T05:08:57.662Z,8.45
2022-08-29T05:11:29.154Z,7.53
2022-08-29T05:13:55.915Z,8.65
2022-08-29T05:16:24.134Z,8.80
2022-08-29T05:18:52.176Z,9.20
2022-08-29T05:21:28.914Z,10.18
2022-08-29T05:23:57.042Z,11.15
2022-08-29T05:26:28.923Z,9.50
2022-08-29T05:28:56.886Z,11.02
2022-08-29T05:31:25.831Z,11.88
2022-08-29T05:33:53.570Z,11.18
2022-08-29T05:36:20.347Z,11.48
2022-08-29T05:38:48.277Z,12.90
2022-08-29T05:41:18.022Z,12.20
2022-08-29T05:43:48.030Z,12.75
2022-08-29T05:46:24.271Z,13.68
2022-08-29T05:48:54.118Z,13.65
2022-08-29T05:51:23.960Z,13.43
2022-08-29T05:54:00.496Z,12.90
2022-08-29T05:56:31.083Z,13.65
2022-08-29T05:59:07.567Z,12.98
2022-08-29T06:01:35.443Z,13.07
2022-08-29T06:04:06.569Z,12.75
2022-08-29T06:06:34.392Z,12.70
2022-08-29T06:09:04.719Z,12.38
2022-08-29T06:11:32.369Z,11.98
2022-08-29T06:14:00.948Z,12.10
2022-08-29T06:16:30.226Z,11.68
2022-08-29T06:18:58.748Z,11.65
2022-08-29T06:21:26.740Z,11.48
2022-08-29T06:23:53.450Z,11.25
2022-08-29T06:26:21.741Z,9.27
2022-08-29T06:28:49.972Z,10.70
2022-08-29T06:31:20.714Z,9.68
2022-08-29T06:33:55.208Z,9.50
2022-08-29T06:36:23.980Z,9.35
2022-08-29T06:38:54.836Z,9.63
2022-08-29T06:41:23.414Z,9.27
2022-08-29T06:43:54.388Z,9.73
2022-08-29T06:46:28.527Z,9.32
2022-08-29T06:48:58.067Z,9.38
2022-08-29T06:51:30.649Z,10.02
2022-08-29T06:54:02.282Z,10.40
2022-08-29T06:56:30.530Z,10.27
2022-08-29T06:59:07.501Z,9.57
2022-08-29T07:01:35.804Z,10.13
2022-08-29T07:04:06.348Z,10.18
2022-08-29T07:06:43.645Z,9.70
2022-08-29T07:09:13.334Z,10.38
2022-08-29T07:11:43.200Z,10.05
2022-08-29T07:14:12.147Z,10.10
2022-08-29T07:16:45.848Z,10.02
2022-08-29T07:19:20.944Z,9.45
2022-08-29T07:21:49.358Z,9.52
2022-08-29T07:24:18.576Z,9.75
2022-08-29T07:26:50.680Z,9.57
2022-08-29T07:29:29.571Z,9.10
2022-08-29T07:31:58.770Z,9.07
2022-08-29T07:34:28.473Z,8.85
2022-08-29T07:36:57.382Z,9.15
2022-08-29T07:39:24.325Z,9.32
2022-08-29T07:41:52.475Z,9.88
2022-08-29T07:44:20.825Z,9.25
2022-08-29T07:46:48.665Z,9.38
2022-08-29T07:49:16.984Z,9.30
2022-08-29T07:51:44.905Z,9.02
2022-08-29T07:54:11.914Z,9.73
2022-08-29T07:56:41.400Z,9.00
2022-08-29T07:59:09.344Z,9.45
2022-08-29T08:01:38.203Z,9.20
2022-08-29T08:04:07.104Z,8.25
2022-08-29T08:06:36.165Z,7.15
2022-08-29T08:09:05.873Z,9.73
2022-08-29T08:11:34.405Z,8.70
2022-08-29T08:14:03.791Z,7.82
2022-08-29T08:16:32.505Z,9.70
2022-08-29T08:18:59.222Z,9.15
2022-08-29T08:21:26.565Z,8.18
2022-08-29T08:23:54.541Z,8.27
2022-08-29T08:26:23.501Z,8.93
2022-08-29T08:28:52.714Z,8.40
2022-08-29T08:31:23.552Z,9.30
2022-08-29T08:33:50.284Z,8.93
2022-08-29T08:36:30.751Z,9.30
2022-08-29T08:38:59.963Z,9.07
2022-08-29T08:41:45.404Z,9.02
2022-08-29T08:45:15.152Z,8.93
2022-08-29T08:48:09.748Z,8.27
2022-08-29T08:50:53.810Z,8.32
2022-08-29T08:53:40.321Z,8.80
2022-08-29T08:56:15.266Z,8.57
2022-08-29T08:58:57.659Z,9.00
2022-08-29T09:01:44.060Z,8.55
2022-08-29T09:04:28.843Z,9.20
2022-08-29T09:07:33.170Z,8.57
2022-08-29T09:10:18.611Z,8.80
2022-08-29T09:13:00.828Z,7.93
2022-08-29T09:15:43.882Z,8.35
2022-08-29T09:18:41.861Z,8.02
2022-08-29T09:21:39.538Z,8.00
2022-08-29T09:24:08.785Z,8.18
2022-08-29T09:26:36.776Z,7.95
2022-08-29T09:29:06.960Z,7.97
2022-08-29T09:31:36.058Z,7.78
2022-08-29T09:34:12.106Z,7.95
2022-08-29T09:36:51.995Z,8.10
2022-08-29T09:39:23.347Z,7.93
2022-08-29T09:42:13.653Z,7.70
2022-08-29T09:44:55.816Z,7.93
2022-08-29T09:47:31.881Z,7.28
2022-08-29T09:50:08.111Z,7.50
2022-08-29T09:52:39.952Z,7.70
2022-08-29T09:55:18.938Z,7.70
2022-08-29T09:57:55.299Z,7.30
2022-08-29T10:00:31.236Z,7.50
2022-08-29T10:03:01.358Z,8.00
2022-08-29T10:05:29.453Z,8.10
2022-08-29T10:07:56.406Z,7.88
2022-08-29T10:10:26.341Z,7.82
2022-08-29T10:13:37.539Z,7.40
2022-08-29T10:16:44.349Z,7.80
2022-08-29T10:19:34.358Z,7.03
2022-08-29T10:25:45.511Z,7.88
2022-08-29T10:28:21.175Z,7.50
2022-08-29T10:36:29.101Z,7.65
2022-08-29T10:39:08.848Z,7.30
2022-08-29T10:42:20.729Z,7.72
2022-08-29T10:45:21.085Z,7.43
2022-08-29T10:48:14.727Z,7.55
2022-08-29T10:51:08.551Z,8.20
2022-08-29T10:53:41.445Z,7.85
2022-08-29T10:56:27.124Z,7.32
2022-08-29T11:01:48.175Z,7.53
2022-08-29T11:04:25.417Z,6.80
2022-08-29T11:07:07.095Z,7.10
2022-08-29T11:09:44.167Z,8.00
2022-08-29T11:12:34.019Z,7.80
2022-08-29T11:15:17.043Z,7.55
2022-08-29T11:17:51.687Z,7.80
2022-08-29T11:20:23.306Z,7.65
2022-08-29T11:23:00.226Z,7.60
2022-08-29T11:25:28.930Z,7.70
2022-08-29T11:28:29.289Z,7.15
2022-08-29T11:30:59.448Z,7.30
2022-08-29T11:33:40.127Z,7.65
2022-08-29T11:36:45.768Z,7.57
2022-08-29T11:39:15.455Z,7.07
2022-08-29T11:41:58.454Z,7.15
2022-08-29T11:44:41.099Z,7.38
2022-08-29T11:47:51.128Z,6.75
2022-08-29T11:50:34.971Z,6.40
2022-08-29T11:53:31.940Z,7.22
2022-08-29T11:56:13.938Z,7.85
2022-08-29T11:58:47.221Z,6.60
2022-08-29T12:01:35.695Z,6.32
2022-08-29T12:04:06.557Z,6.00
2022-08-29T12:07:01.323Z,5.95
2022-08-29T12:09:46.085Z,5.78
2022-08-29T12:12:18.140Z,6.10
2022-08-29T12:14:53.668Z,6.28
2022-08-29T12:20:15.842Z,5.25
2022-08-29T12:22:51.754Z,5.97
2022-08-29T12:25:55.160Z,5.75
2022-08-29T12:28:59.149Z,5.90
2022-08-29T12:32:27.346Z,5.43
2022-08-29T12:35:18.354Z,5.50
2022-08-29T12:38:43.358Z,5.60
2022-08-29T12:41:15.807Z,5.20
2022-08-29T12:43:45.190Z,5.18
2022-08-29T12:46:20.974Z,4.47
2022-08-29T12:48:57.561Z,4.95
2022-08-29T12:51:42.734Z,4.90
2022-08-29T12:54:12.304Z,4.80
2022-08-29T12:56:50.110Z,4.88
2022-08-29T12:59:20.491Z,5.25
2022-08-29T13:01:54.969Z,5.30
2022-08-29T13:04:32.091Z,4.80
2022-08-29T13:07:15.562Z,4.90
2022-08-29T13:09:49.192Z,5.18
2022-08-29T13:12:25.320Z,4.88
2022-08-29T13:15:09.039Z,5.55
2022-08-29T13:17:41.151Z,4.93
2022-08-29T13:20:44.225Z,5.38
2022-08-29T13:23:27.162Z,5.00
2022-08-29T13:26:14.805Z,5.25
2022-08-29T13:28:57.335Z,4.90
2022-08-29T13:31:38.723Z,4.53
2022-08-29T13:34:19.521Z,5.03
2022-08-29T13:36:58.645Z,5.05
2022-08-29T13:39:34.434Z,4.82
2022-08-29T13:42:20.121Z,4.60
2022-08-29T13:45:16.439Z,5.18
2022-08-29T13:48:02.500Z,5.03
2022-08-29T13:50:33.109Z,4.35
2022-08-29T13:53:00.942Z,4.47
2022-08-29T13:55:30.141Z,4.22
2022-08-29T13:57:59.443Z,4.47
2022-08-29T14:00:35.144Z,4.63
2022-08-29T14:03:04.613Z,4.43
2022-08-29T14:05:41.655Z,4.38
2022-08-29T14:08:11.744Z,4.85
2022-08-29T14:10:40.492Z,4.15
2022-08-29T14:13:09.377Z,4.15
2022-08-29T14:15:38.588Z,4.00
2022-08-29T14:18:06.571Z,4.18
2022-08-29T14:20:34.468Z,4.65
2022-08-29T14:23:02.227Z,3.90
2022-08-29T14:25:28.972Z,3.65
2022-08-29T14:27:55.811Z,3.35
2022-08-29T14:30:23.709Z,3.67
2022-08-29T14:32:52.022Z,3.63
2022-08-29T14:35:26.698Z,3.40
2022-08-29T14:38:01.306Z,3.58
2022-08-29T14:40:29.745Z,3.30
2022-08-29T14:42:58.577Z,3.40
2022-08-29T14:45:28.826Z,3.45
2022-08-29T14:47:57.197Z,3.28
2022-08-29T14:50:25.714Z,3.28
2022-08-29T14:52:53.975Z,3.42
2022-08-29T14:55:22.253Z,3.30
2022-08-29T14:57:50.535Z,3.30
2022-08-29T15:00:27.038Z,3.47
2022-08-29T15:02:55.554Z,2.97
2022-08-29T15:05:26.876Z,3.13
2022-08-29T15:07:55.348Z,2.90
2022-08-29T15:10:28.607Z,2.67
2022-08-29T15:12:57.888Z,2.50
2022-08-29T15:15:24.988Z,2.30
2022-08-29T15:17:53.120Z,2.30
2022-08-29T15:20:37.149Z,2.50
2022-08-29T15:23:06.393Z,2.70
2022-08-29T15:25:37.722Z,2.53
2022-08-29T15:28:07.820Z,2.10
2022-08-29T15:30:39.262Z,2.20
2022-08-29T15:33:07.330Z,2.78
2022-08-29T15:35:34.081Z,2.50
2022-08-29T15:38:01.118Z,2.60
2022-08-29T15:40:27.939Z,3.00
2022-08-29T15:42:56.141Z,2.30
2022-08-29T15:45:24.143Z,2.33
2022-08-29T15:47:53.898Z,2.30
2022-08-29T15:50:22.582Z,2.28
2022-08-29T15:52:49.340Z,2.72
2022-08-29T15:55:16.142Z,2.30
2022-08-29T15:57:52.287Z,2.22
2022-08-29T16:00:29.532Z,2.13
2022-08-29T16:03:01.418Z,2.25
2022-08-29T16:05:28.526Z,2.30
2022-08-29T16:07:57.218Z,1.95
2022-08-29T16:10:25.655Z,2.20
2022-08-29T16:12:53.754Z,2.28
2022-08-29T16:15:22.014Z,2.00
2022-08-29T16:17:49.863Z,2.03
2022-08-29T16:20:16.668Z,2.25
2022-08-29T16:22:49.841Z,1.75
2022-08-29T16:25:18.090Z,1.48
2022-08-29T16:27:46.193Z,1.40
2022-08-29T16:30:14.956Z,1.67
2022-08-29T16:32:43.799Z,1.73
2022-08-29T16:35:13.459Z,1.63
2022-08-29T16:37:40.489Z,1.63
2022-08-29T16:40:08.675Z,1.40
2022-08-29T16:42:37.321Z,1.40
2022-08-29T16:45:07.546Z,1.60
2022-08-29T16:47:35.553Z,1.60
2022-08-29T16:50:05.760Z,1.70
2022-08-29T16:52:32.549Z,1.17
2022-08-29T16:55:00.448Z,1.42
2022-08-29T16:57:28.382Z,1.35
2022-08-29T16:59:56.946Z,1.13
2022-08-29T17:02:24.954Z,1.50
2022-08-29T17:04:52.871Z,1.70
2022-08-29T17:07:22.104Z,1.70
2022-08-29T17:09:48.815Z,1.45
2022-08-29T17:12:16.279Z,1.50
2022-08-29T17:14:43.128Z,1.98
2022-08-29T17:17:11.037Z,1.45
2022-08-29T17:19:39.795Z,1.60
2022-08-29T17:22:09.026Z,1.55
2022-08-29T17:24:35.803Z,1.40
2022-08-29T17:27:02.556Z,1.25
2022-08-29T17:29:30.668Z,1.80
2022-08-29T17:31:58.655Z,1.20
2022-08-29T17:34:26.814Z,1.42
2022-08-29T17:36:55.051Z,1.50
2022-08-29T17:39:21.786Z,1.67
2022-08-29T17:41:53.160Z,1.88
2022-08-29T17:44:21.763Z,1.50
2022-08-29T17:46:50.033Z,2.30
2022-08-29T17:49:18.184Z,1.73
2022-08-29T17:51:52.869Z,2.10
2022-08-29T17:54:23.978Z,2.20
2022-08-29T17:56:57.398Z,1.60
2022-08-29T17:59:28.624Z,1.90
2022-08-29T18:01:57.736Z,1.80
2022-08-29T18:04:26.936Z,2.22
2022-08-29T18:06:56.044Z,1.70
2022-08-29T18:09:23.652Z,1.90
2022-08-29T18:11:52.496Z,1.67
2022-08-29T18:14:23.833Z,1.95
2022-08-29T18:16:52.750Z,2.40
2022-08-29T18:19:21.661Z,6.00
2022-08-29T18:21:51.195Z,1.80
2022-08-29T18:24:18.110Z,2.40
2022-08-29T18:26:48.432Z,3.47
2022-08-29T18:29:15.770Z,2.28
2022-08-29T18:31:43.826Z,2.55
2022-08-29T18:34:11.900Z,2.53
2022-08-29T18:36:42.799Z,2.65
2022-08-29T18:39:11.851Z,3.10
2022-08-29T18:41:38.833Z,2.60
2022-08-29T18:44:06.880Z,1.90
2022-08-29T18:46:34.762Z,2.15
2022-08-29T18:49:03.210Z,2.25
2022-08-29T18:51:32.377Z,2.20
2022-08-29T18:54:00.386Z,2.28
2022-08-29T18:56:28.680Z,2.00
2022-08-29T18:58:58.767Z,2.40
2022-08-29T19:01:29.562Z,3.40
2022-08-29T19:04:00.036Z,2.85
2022-08-29T19:06:27.968Z,3.22
2022-08-29T19:08:58.305Z,3.15
2022-08-29T19:11:25.851Z,2.22
2022-08-29T19:13:54.456Z,3.08
2022-08-29T19:16:22.359Z,3.45
2022-08-29T19:18:51.182Z,2.80
2022-08-29T19:21:19.173Z,2.42
2022-08-29T19:23:52.049Z,2.28
2022-08-29T19:26:33.154Z,2.05
2022-08-29T19:29:04.220Z,2.53
2022-08-29T19:31:32.620Z,1.88
2022-08-29T19:34:00.721Z,2.28
2022-08-29T19:36:28.594Z,2.00
2022-08-29T19:38:55.784Z,6.40
2022-08-29T19:41:22.503Z,15.65
2022-08-29T19:43:50.541Z,15.60
2022-08-29T19:46:21.591Z,5.53
2022-08-29T19:48:51.224Z,2.55
2022-08-29T19:51:19.831Z,3.00
2022-08-29T19:53:48.485Z,15.80
2022-08-29T19:56:17.693Z,11.25
2022-08-29T19:58:45.806Z,9.23
2022-08-29T20:01:15.252Z,4.60
2022-08-29T20:03:43.339Z,2.63
2022-08-29T20:06:13.402Z,2.80
2022-08-29T20:08:43.874Z,2.55
2022-08-29T20:11:12.674Z,2.75
2022-08-29T20:13:40.857Z,2.78
2022-08-29T20:16:14.482Z,2.78
2022-08-29T20:18:45.964Z,3.10
2022-08-29T20:21:14.468Z,2.20
2022-08-29T20:23:49.212Z,2.92
2022-08-29T20:26:20.808Z,3.78
2022-08-29T20:28:50.955Z,2.50
2022-08-29T20:31:20.744Z,2.67
2022-08-29T20:33:48.902Z,2.55
2022-08-29T20:36:18.605Z,2.88
2022-08-29T20:38:46.014Z,2.50
2022-08-29T20:41:14.111Z,2.78
2022-08-29T20:43:49.133Z,2.83
2022-08-29T20:46:17.074Z,3.13
2022-08-29T20:48:45.178Z,2.70
2022-08-29T20:51:13.242Z,2.90
2022-08-29T20:53:41.419Z,2.28
2022-08-29T20:56:09.475Z,2.50
2022-08-29T20:58:37.479Z,2.30
2022-08-29T21:01:06.955Z,3.05
2022-08-29T21:03:35.736Z,2.15
2022-08-29T21:06:12.430Z,2.28
2022-08-29T21:08:39.151Z,2.00
2022-08-29T21:11:07.230Z,2.40
2022-08-29T21:13:35.324Z,2.25
2022-08-29T21:16:03.581Z,2.47
2022-08-29T21:18:31.699Z,2.20
2022-08-29T21:20:59.873Z,2.40
2022-08-29T21:23:27.907Z,2.30
2022-08-29T21:25:58.586Z,2.63
2022-08-29T21:28:27.677Z,2.97
2022-08-29T21:30:59.024Z,2.80
2022-08-29T21:33:27.111Z,2.85
2022-08-29T21:35:57.740Z,3.58
2022-08-29T21:38:24.452Z,3.20
2022-08-29T21:40:51.494Z,4.10
2022-08-29T21:43:19.648Z,3.53
2022-08-29T21:45:47.557Z,2.88
2022-08-29T21:48:14.280Z,2.42
2022-08-29T21:50:42.559Z,2.53
2022-08-29T21:53:13.854Z,2.00
2022-08-29T21:55:41.059Z,2.42
2022-08-29T21:58:09.295Z,1.80
2022-08-29T22:00:38.436Z,1.98
2022-08-29T22:03:08.269Z,1.70
2022-08-29T22:05:36.115Z,1.92
2022-08-29T22:08:07.782Z,2.08
2022-08-29T22:10:42.483Z,2.50
2022-08-29T22:13:10.229Z,2.50
2022-08-29T22:15:38.435Z,3.15
2022-08-29T22:18:06.496Z,3.50
2022-08-29T22:20:35.585Z,4.55
2022-08-29T22:23:05.064Z,4.38
2022-08-29T22:25:33.231Z,4.40
2022-08-29T22:28:03.575Z,4.90
2022-08-29T22:30:34.844Z,5.05
2022-08-29T22:33:05.487Z,4.28
2022-08-29T22:35:35.324Z,4.13
2022-08-29T22:38:06.051Z,4.07
2022-08-29T22:40:36.203Z,3.85
2022-08-29T22:43:06.985Z,3.90
2022-08-29T22:45:36.525Z,4.47
2022-08-29T22:48:13.195Z,4.53
2022-08-29T22:50:45.458Z,4.22
2022-08-29T22:53:22.368Z,3.75
2022-08-29T22:55:50.816Z,3.80
2022-08-29T22:58:18.574Z,3.45
2022-08-29T23:00:46.671Z,3.20
2022-08-29T23:03:14.589Z,3.47
2022-08-29T23:05:42.503Z,3.50
2022-08-29T23:08:09.255Z,3.25
2022-08-29T23:10:35.971Z,3.10
2022-08-29T23:13:03.687Z,3.08
2022-08-29T23:15:31.567Z,2.90
2022-08-29T23:18:00.900Z,2.72
2022-08-29T23:20:29.742Z,2.70
2022-08-29T23:22:57.518Z,2.80
2022-08-29T23:25:27.177Z,2.90
2022-08-29T23:27:58.002Z,2.83
2022-08-29T23:30:26.031Z,2.47
2022-08-29T23:32:53.988Z,2.60
2022-08-29T23:35:21.893Z,2.72
2022-08-29T23:37:49.973Z,2.85
2022-08-29T23:40:16.937Z,3.17
2022-08-29T23:42:43.739Z,3.17
2022-08-29T23:45:11.973Z,2.90
2022-08-29T23:47:39.669Z,2.90
2022-08-29T23:50:08.282Z,3.35
2022-08-29T23:52:36.661Z,2.28
2022-08-29T23:55:03.803Z,3.13
2022-08-29T23:57:31.557Z,3.10
2022-08-29T23:59:59.608Z,3.22
